sensor_id;sensor_type;location;lat;lon;timestamp;temperature;humidity
21387;DHT22;10854;45.922;6.716;2023-03-01T00:01:51;0.10;99.90
21387;DHT22;10854;45.922;6.716;2023-03-01T00:04:19;0.20;99.90
21387;DHT22;10854;45.922;6.716;2023-03-01T00:06:47;0.20;99.90
21387;DHT22;10854;45.922;6.716;2023-03-01T00:09:16;0.30;99.90
21387;DHT22;10854;45.922;6.716;2023-03-01T00:11:45;0.30;99.90
21387;DHT22;10854;45.922;6.716;2023-03-01T00:14:14;0.30;99.90
21387;DHT22;10854;45.922;6.716;2023-03-01T00:16:45;0.30;99.90
21387;DHT22;10854;45.922;6.716;2023-03-01T00:19:16;0.30;99.90
21387;DHT22;10854;45.922;6.716;2023-03-01T00:21:46;0.40;99.90
21387;DHT22;10854;45.922;6.716;2023-03-01T00:24:15;0.40;99.90
21387;DHT22;10854;45.922;6.716;2023-03-01T00:26:43;0.40;99.90
21387;DHT22;10854;45.922;6.716;2023-03-01T00:29:12;0.40;99.90
21387;DHT22;10854;45.922;6.716;2023-03-01T00:31:40;0.50;99.90
21387;DHT22;10854;45.922;6.716;2023-03-01T00:34:09;0.50;99.90
21387;DHT22;10854;45.922;6.716;2023-03-01T00:36:37;0.50;99.90
21387;DHT22;10854;45.922;6.716;2023-03-01T00:39:11;0.50;99.90
21387;DHT22;10854;45.922;6.716;2023-03-01T00:41:40;0.50;99.90
21387;DHT22;10854;45.922;6.716;2023-03-01T00:44:09;0.50;99.90
21387;DHT22;10854;45.922;6.716;2023-03-01T00:46:38;0.50;99.90
21387;DHT22;10854;45.922;6.716;2023-03-01T00:49:07;0.50;99.90
21387;DHT22;10854;45.922;6.716;2023-03-01T00:51:35;0.50;99.90
21387;DHT22;10854;45.922;6.716;2023-03-01T00:54:04;0.60;99.90
21387;DHT22;10854;45.922;6.716;2023-03-01T00:56:33;0.60;99.90
21387;DHT22;10854;45.922;6.716;2023-03-01T00:59:01;0.60;99.90
21387;DHT22;10854;45.922;6.716;2023-03-01T01:01:30;0.60;99.90
21387;DHT22;10854;45.922;6.716;2023-03-01T01:04:02;0.60;99.90
21387;DHT22;10854;45.922;6.716;2023-03-01T01:06:40;0.60;99.90
21387;DHT22;10854;45.922;6.716;2023-03-01T01:09:14;0.60;99.90
21387;DHT22;10854;45.922;6.716;2023-03-01T01:11:49;0.60;99.90
21387;DHT22;10854;45.922;6.716;2023-03-01T01:14:18;0.60;99.90
21387;DHT22;10854;45.922;6.716;2023-03-01T01:16:47;0.60;99.90
21387;DHT22;10854;45.922;6.716;2023-03-01T01:19:16;0.60;99.90
21387;DHT22;10854;45.922;6.716;2023-03-01T01:21:45;0.60;99.90
21387;DHT22;10854;45.922;6.716;2023-03-01T01:24:14;0.60;99.90
21387;DHT22;10854;45.922;6.716;2023-03-01T01:26:43;0.60;99.90
21387;DHT22;10854;45.922;6.716;2023-03-01T01:29:12;0.60;99.90
21387;DHT22;10854;45.922;6.716;2023-03-01T01:31:42;0.60;99.90
21387;DHT22;10854;45.922;6.716;2023-03-01T01:34:16;0.70;99.90
21387;DHT22;10854;45.922;6.716;2023-03-01T01:36:48;0.60;99.90
21387;DHT22;10854;45.922;6.716;2023-03-01T01:39:17;0.60;99.90
21387;DHT22;10854;45.922;6.716;2023-03-01T01:41:46;0.70;99.90
21387;DHT22;10854;45.922;6.716;2023-03-01T01:47:14;0.60;99.90
21387;DHT22;10854;45.922;6.716;2023-03-01T01:49:54;0.60;99.90
21387;DHT22;10854;45.922;6.716;2023-03-01T01:52:36;0.60;99.90
21387;DHT22;10854;45.922;6.716;2023-03-01T01:55:10;0.70;99.90
21387;DHT22;10854;45.922;6.716;2023-03-01T01:57:45;0.60;99.90
21387;DHT22;10854;45.922;6.716;2023-03-01T02:00:20;0.60;99.90
21387;DHT22;10854;45.922;6.716;2023-03-01T02:02:55;0.60;99.90
21387;DHT22;10854;45.922;6.716;2023-03-01T02:07:58;0.60;99.90
21387;DHT22;10854;45.922;6.716;2023-03-01T02:10:28;0.60;99.90
21387;DHT22;10854;45.922;6.716;2023-03-01T02:12:56;0.60;99.90
21387;DHT22;10854;45.922;6.716;2023-03-01T02:15:25;0.60;99.90
21387;DHT22;10854;45.922;6.716;2023-03-01T02:17:55;0.50;99.90
21387;DHT22;10854;45.922;6.716;2023-03-01T02:23:11;0.60;99.90
21387;DHT22;10854;45.922;6.716;2023-03-01T02:25:56;0.50;99.90
21387;DHT22;10854;45.922;6.716;2023-03-01T02:28:30;0.50;99.90
21387;DHT22;10854;45.922;6.716;2023-03-01T02:30:58;0.50;99.90
21387;DHT22;10854;45.922;6.716;2023-03-01T02:33:46;0.50;99.90
21387;DHT22;10854;45.922;6.716;2023-03-01T02:36:26;0.50;99.90
21387;DHT22;10854;45.922;6.716;2023-03-01T02:38:59;0.50;99.90
21387;DHT22;10854;45.922;6.716;2023-03-01T02:41:34;0.50;99.90
21387;DHT22;10854;45.922;6.716;2023-03-01T02:44:04;0.50;99.90
21387;DHT22;10854;45.922;6.716;2023-03-01T02:46:33;0.50;99.90
21387;DHT22;10854;45.922;6.716;2023-03-01T02:49:01;0.50;99.90
21387;DHT22;10854;45.922;6.716;2023-03-01T02:56:41;0.50;99.90
21387;DHT22;10854;45.922;6.716;2023-03-01T02:59:11;0.50;99.90
21387;DHT22;10854;45.922;6.716;2023-03-01T03:01:40;0.50;99.90
21387;DHT22;10854;45.922;6.716;2023-03-01T03:04:13;0.50;99.90
21387;DHT22;10854;45.922;6.716;2023-03-01T03:06:49;0.60;99.90
21387;DHT22;10854;45.922;6.716;2023-03-01T03:09:18;0.60;99.90
21387;DHT22;10854;45.922;6.716;2023-03-01T03:11:46;0.60;99.90
21387;DHT22;10854;45.922;6.716;2023-03-01T03:14:16;0.60;99.90
21387;DHT22;10854;45.922;6.716;2023-03-01T03:16:48;0.60;99.90
21387;DHT22;10854;45.922;6.716;2023-03-01T03:19:18;0.60;99.90
21387;DHT22;10854;45.922;6.716;2023-03-01T03:21:47;0.60;99.90
21387;DHT22;10854;45.922;6.716;2023-03-01T03:24:17;0.60;99.90
21387;DHT22;10854;45.922;6.716;2023-03-01T03:26:46;0.60;99.90
21387;DHT22;10854;45.922;6.716;2023-03-01T03:29:14;0.60;99.90
21387;DHT22;10854;45.922;6.716;2023-03-01T03:31:43;0.60;99.90
21387;DHT22;10854;45.922;6.716;2023-03-01T03:34:11;0.60;99.90
21387;DHT22;10854;45.922;6.716;2023-03-01T03:36:47;0.60;99.90
21387;DHT22;10854;45.922;6.716;2023-03-01T03:39:15;0.60;99.90
21387;DHT22;10854;45.922;6.716;2023-03-01T03:41:47;0.60;99.90
21387;DHT22;10854;45.922;6.716;2023-03-01T03:44:15;0.70;99.90
21387;DHT22;10854;45.922;6.716;2023-03-01T03:46:44;0.60;99.90
21387;DHT22;10854;45.922;6.716;2023-03-01T03:49:13;0.60;99.90
21387;DHT22;10854;45.922;6.716;2023-03-01T03:51:41;0.60;99.90
21387;DHT22;10854;45.922;6.716;2023-03-01T03:54:10;0.70;99.90
21387;DHT22;10854;45.922;6.716;2023-03-01T03:56:38;0.70;99.90
21387;DHT22;10854;45.922;6.716;2023-03-01T03:59:07;0.70;99.90
21387;DHT22;10854;45.922;6.716;2023-03-01T04:01:37;0.70;99.90
21387;DHT22;10854;45.922;6.716;2023-03-01T04:04:05;0.70;99.90
21387;DHT22;10854;45.922;6.716;2023-03-01T04:06:35;0.70;99.90
21387;DHT22;10854;45.922;6.716;2023-03-01T04:09:04;0.70;99.90
21387;DHT22;10854;45.922;6.716;2023-03-01T04:11:32;0.70;99.90
21387;DHT22;10854;45.922;6.716;2023-03-01T04:14:02;0.60;99.90
21387;DHT22;10854;45.922;6.716;2023-03-01T04:16:32;0.70;99.90
21387;DHT22;10854;45.922;6.716;2023-03-01T04:19:01;0.60;99.90
21387;DHT22;10854;45.922;6.716;2023-03-01T04:21:29;0.70;99.90
21387;DHT22;10854;45.922;6.716;2023-03-01T04:23:58;0.70;99.90
21387;DHT22;10854;45.922;6.716;2023-03-01T04:26:26;0.70;99.90
21387;DHT22;10854;45.922;6.716;2023-03-01T04:28:55;0.70;99.90
21387;DHT22;10854;45.922;6.716;2023-03-01T04:31:23;0.70;99.90
21387;DHT22;10854;45.922;6.716;2023-03-01T04:33:54;0.60;99.90
21387;DHT22;10854;45.922;6.716;2023-03-01T04:36:25;0.70;99.90
21387;DHT22;10854;45.922;6.716;2023-03-01T04:38:55;0.70;99.90
21387;DHT22;10854;45.922;6.716;2023-03-01T04:41:24;0.70;99.90
21387;DHT22;10854;45.922;6.716;2023-03-01T04:43:53;0.70;99.90
21387;DHT22;10854;45.922;6.716;2023-03-01T04:46:22;0.70;99.90
21387;DHT22;10854;45.922;6.716;2023-03-01T04:48:51;0.70;99.90
21387;DHT22;10854;45.922;6.716;2023-03-01T04:51:19;0.70;99.90
21387;DHT22;10854;45.922;6.716;2023-03-01T04:53:49;0.70;99.90
21387;DHT22;10854;45.922;6.716;2023-03-01T04:56:19;0.70;99.90
21387;DHT22;10854;45.922;6.716;2023-03-01T04:58:47;0.70;99.90
21387;DHT22;10854;45.922;6.716;2023-03-01T05:01:18;0.70;99.90
21387;DHT22;10854;45.922;6.716;2023-03-01T05:03:49;0.70;99.90
21387;DHT22;10854;45.922;6.716;2023-03-01T05:06:19;0.70;99.90
21387;DHT22;10854;45.922;6.716;2023-03-01T05:08:48;0.70;99.90
21387;DHT22;10854;45.922;6.716;2023-03-01T05:11:18;0.70;99.90
21387;DHT22;10854;45.922;6.716;2023-03-01T05:13:46;0.70;99.90
21387;DHT22;10854;45.922;6.716;2023-03-01T05:16:15;0.70;99.90
21387;DHT22;10854;45.922;6.716;2023-03-01T05:18:44;0.70;99.90
21387;DHT22;10854;45.922;6.716;2023-03-01T05:21:14;0.70;99.90
21387;DHT22;10854;45.922;6.716;2023-03-01T05:23:45;0.70;99.90
21387;DHT22;10854;45.922;6.716;2023-03-01T05:26:16;0.70;99.90
21387;DHT22;10854;45.922;6.716;2023-03-01T05:28:55;0.70;99.90
21387;DHT22;10854;45.922;6.716;2023-03-01T05:31:27;0.80;99.90
21387;DHT22;10854;45.922;6.716;2023-03-01T05:33:56;0.80;99.90
21387;DHT22;10854;45.922;6.716;2023-03-01T05:36:24;0.80;99.90
21387;DHT22;10854;45.922;6.716;2023-03-01T05:38:52;0.80;99.90
21387;DHT22;10854;45.922;6.716;2023-03-01T05:41:22;0.80;99.90
21387;DHT22;10854;45.922;6.716;2023-03-01T05:43:50;0.80;99.90
21387;DHT22;10854;45.922;6.716;2023-03-01T05:46:19;0.70;99.90
21387;DHT22;10854;45.922;6.716;2023-03-01T05:48:48;0.80;99.90
21387;DHT22;10854;45.922;6.716;2023-03-01T05:51:17;0.80;99.90
21387;DHT22;10854;45.922;6.716;2023-03-01T05:53:47;0.80;99.90
21387;DHT22;10854;45.922;6.716;2023-03-01T05:56:15;0.80;99.90
21387;DHT22;10854;45.922;6.716;2023-03-01T05:58:44;0.80;99.90
21387;DHT22;10854;45.922;6.716;2023-03-01T06:01:12;0.80;99.90
21387;DHT22;10854;45.922;6.716;2023-03-01T06:03:41;0.80;99.90
21387;DHT22;10854;45.922;6.716;2023-03-01T06:06:10;0.80;99.90
21387;DHT22;10854;45.922;6.716;2023-03-01T06:08:38;0.80;99.90
21387;DHT22;10854;45.922;6.716;2023-03-01T06:11:06;0.80;99.90
21387;DHT22;10854;45.922;6.716;2023-03-01T06:13:35;0.80;99.90
21387;DHT22;10854;45.922;6.716;2023-03-01T06:16:05;0.80;99.90
21387;DHT22;10854;45.922;6.716;2023-03-01T06:18:35;0.80;99.90
21387;DHT22;10854;45.922;6.716;2023-03-01T06:21:04;0.80;99.90
21387;DHT22;10854;45.922;6.716;2023-03-01T06:23:38;0.80;99.90
21387;DHT22;10854;45.922;6.716;2023-03-01T06:26:07;0.80;99.90
21387;DHT22;10854;45.922;6.716;2023-03-01T06:28:36;0.80;99.90
21387;DHT22;10854;45.922;6.716;2023-03-01T06:31:05;0.80;99.90
21387;DHT22;10854;45.922;6.716;2023-03-01T06:33:36;0.80;99.90
21387;DHT22;10854;45.922;6.716;2023-03-01T06:36:05;0.80;99.90
21387;DHT22;10854;45.922;6.716;2023-03-01T06:38:34;0.90;99.90
21387;DHT22;10854;45.922;6.716;2023-03-01T06:41:03;0.90;99.90
21387;DHT22;10854;45.922;6.716;2023-03-01T06:43:31;0.90;99.90
21387;DHT22;10854;45.922;6.716;2023-03-01T06:46:00;0.90;99.90
21387;DHT22;10854;45.922;6.716;2023-03-01T06:48:29;0.90;99.90
21387;DHT22;10854;45.922;6.716;2023-03-01T06:51:00;0.90;99.90
21387;DHT22;10854;45.922;6.716;2023-03-01T06:53:29;0.90;99.90
21387;DHT22;10854;45.922;6.716;2023-03-01T06:55:58;0.90;99.90
21387;DHT22;10854;45.922;6.716;2023-03-01T06:58:28;0.90;99.90
21387;DHT22;10854;45.922;6.716;2023-03-01T07:00:57;0.90;99.90
21387;DHT22;10854;45.922;6.716;2023-03-01T07:03:28;1.00;99.90
21387;DHT22;10854;45.922;6.716;2023-03-01T07:05:56;1.00;99.90
21387;DHT22;10854;45.922;6.716;2023-03-01T07:08:27;1.00;99.90
21387;DHT22;10854;45.922;6.716;2023-03-01T07:10:59;1.00;99.90
21387;DHT22;10854;45.922;6.716;2023-03-01T07:13:30;1.00;99.90
21387;DHT22;10854;45.922;6.716;2023-03-01T07:15:58;1.10;99.90
21387;DHT22;10854;45.922;6.716;2023-03-01T07:18:28;1.10;99.90
21387;DHT22;10854;45.922;6.716;2023-03-01T07:20:57;1.20;99.90
21387;DHT22;10854;45.922;6.716;2023-03-01T07:23:27;1.30;99.80
21387;DHT22;10854;45.922;6.716;2023-03-01T07:25:56;1.30;99.50
21387;DHT22;10854;45.922;6.716;2023-03-01T07:28:26;1.40;99.10
21387;DHT22;10854;45.922;6.716;2023-03-01T07:31:02;1.40;98.70
21387;DHT22;10854;45.922;6.716;2023-03-01T07:33:30;1.40;98.30
21387;DHT22;10854;45.922;6.716;2023-03-01T07:36:02;1.40;98.00
21387;DHT22;10854;45.922;6.716;2023-03-01T07:38:32;1.40;97.80
21387;DHT22;10854;45.922;6.716;2023-03-01T07:41:03;1.40;97.70
21387;DHT22;10854;45.922;6.716;2023-03-01T07:43:33;1.50;97.80
21387;DHT22;10854;45.922;6.716;2023-03-01T07:46:03;1.50;97.50
21387;DHT22;10854;45.922;6.716;2023-03-01T07:48:33;1.50;97.10
21387;DHT22;10854;45.922;6.716;2023-03-01T07:51:04;1.50;96.50
21387;DHT22;10854;45.922;6.716;2023-03-01T07:53:33;1.40;96.30
21387;DHT22;10854;45.922;6.716;2023-03-01T07:56:08;1.40;96.10
21387;DHT22;10854;45.922;6.716;2023-03-01T07:58:39;1.30;95.90
21387;DHT22;10854;45.922;6.716;2023-03-01T08:01:10;1.30;95.80
21387;DHT22;10854;45.922;6.716;2023-03-01T08:03:39;1.30;95.50
21387;DHT22;10854;45.922;6.716;2023-03-01T08:06:10;1.20;95.30
21387;DHT22;10854;45.922;6.716;2023-03-01T08:08:39;1.20;95.30
21387;DHT22;10854;45.922;6.716;2023-03-01T08:11:10;1.20;95.40
21387;DHT22;10854;45.922;6.716;2023-03-01T08:13:39;1.20;95.40
21387;DHT22;10854;45.922;6.716;2023-03-01T08:16:13;1.20;95.40
21387;DHT22;10854;45.922;6.716;2023-03-01T08:18:43;1.30;95.40
21387;DHT22;10854;45.922;6.716;2023-03-01T08:21:14;1.30;95.30
21387;DHT22;10854;45.922;6.716;2023-03-01T08:23:45;1.30;95.50
21387;DHT22;10854;45.922;6.716;2023-03-01T08:26:16;1.40;95.30
21387;DHT22;10854;45.922;6.716;2023-03-01T08:28:47;1.50;95.40
21387;DHT22;10854;45.922;6.716;2023-03-01T08:31:27;1.70;95.30
21387;DHT22;10854;45.922;6.716;2023-03-01T08:34:02;1.80;95.20
21387;DHT22;10854;45.922;6.716;2023-03-01T08:36:38;2.00;94.80
21387;DHT22;10854;45.922;6.716;2023-03-01T08:39:08;2.10;94.50
21387;DHT22;10854;45.922;6.716;2023-03-01T08:41:37;2.30;94.30
21387;DHT22;10854;45.922;6.716;2023-03-01T08:44:08;2.40;94.00
21387;DHT22;10854;45.922;6.716;2023-03-01T08:46:40;2.60;93.60
21387;DHT22;10854;45.922;6.716;2023-03-01T08:49:18;2.60;92.90
21387;DHT22;10854;45.922;6.716;2023-03-01T08:51:48;2.70;92.60
21387;DHT22;10854;45.922;6.716;2023-03-01T08:54:19;2.80;92.40
21387;DHT22;10854;45.922;6.716;2023-03-01T08:56:49;2.90;92.20
21387;DHT22;10854;45.922;6.716;2023-03-01T08:59:18;3.00;92.00
21387;DHT22;10854;45.922;6.716;2023-03-01T09:01:48;3.10;91.60
21387;DHT22;10854;45.922;6.716;2023-03-01T09:04:16;3.20;91.10
21387;DHT22;10854;45.922;6.716;2023-03-01T09:06:45;3.20;90.70
21387;DHT22;10854;45.922;6.716;2023-03-01T09:09:15;3.30;90.60
21387;DHT22;10854;45.922;6.716;2023-03-01T09:11:45;3.40;90.30
21387;DHT22;10854;45.922;6.716;2023-03-01T09:14:14;3.60;89.80
21387;DHT22;10854;45.922;6.716;2023-03-01T09:16:42;3.70;89.10
21387;DHT22;10854;45.922;6.716;2023-03-01T09:19:11;3.80;88.60
21387;DHT22;10854;45.922;6.716;2023-03-01T09:21:40;3.80;86.90
21387;DHT22;10854;45.922;6.716;2023-03-01T09:24:13;3.90;86.60
21387;DHT22;10854;45.922;6.716;2023-03-01T09:26:42;4.00;86.50
21387;DHT22;10854;45.922;6.716;2023-03-01T09:29:16;4.20;85.90
21387;DHT22;10854;45.922;6.716;2023-03-01T09:31:45;4.30;84.80
21387;DHT22;10854;45.922;6.716;2023-03-01T09:34:13;4.40;84.20
21387;DHT22;10854;45.922;6.716;2023-03-01T09:36:44;4.50;83.60
21387;DHT22;10854;45.922;6.716;2023-03-01T09:39:12;4.50;82.70
21387;DHT22;10854;45.922;6.716;2023-03-01T09:42:02;4.50;82.10
21387;DHT22;10854;45.922;6.716;2023-03-01T09:44:51;4.50;81.60
21387;DHT22;10854;45.922;6.716;2023-03-01T09:47:27;4.40;79.10
21387;DHT22;10854;45.922;6.716;2023-03-01T09:49:58;4.20;78.10
21387;DHT22;10854;45.922;6.716;2023-03-01T09:55:11;4.10;79.30
21387;DHT22;10854;45.922;6.716;2023-03-01T09:57:52;4.10;79.50
21387;DHT22;10854;45.922;6.716;2023-03-01T10:00:33;4.20;78.90
21387;DHT22;10854;45.922;6.716;2023-03-01T10:03:22;4.10;79.00
21387;DHT22;10854;45.922;6.716;2023-03-01T10:06:21;4.30;79.70
21387;DHT22;10854;45.922;6.716;2023-03-01T10:09:05;4.60;79.00
21387;DHT22;10854;45.922;6.716;2023-03-01T10:11:43;4.70;78.60
21387;DHT22;10854;45.922;6.716;2023-03-01T10:14:30;4.90;78.70
21387;DHT22;10854;45.922;6.716;2023-03-01T10:17:10;5.20;78.10
21387;DHT22;10854;45.922;6.716;2023-03-01T10:19:45;5.40;77.50
21387;DHT22;10854;45.922;6.716;2023-03-01T10:24:42;5.80;75.70
21387;DHT22;10854;45.922;6.716;2023-03-01T10:32:26;6.40;74.00
21387;DHT22;10854;45.922;6.716;2023-03-01T10:34:56;6.50;71.10
21387;DHT22;10854;45.922;6.716;2023-03-01T10:37:25;6.30;70.80
21387;DHT22;10854;45.922;6.716;2023-03-01T10:39:58;6.40;71.50
21387;DHT22;10854;45.922;6.716;2023-03-01T10:42:29;6.50;71.40
21387;DHT22;10854;45.922;6.716;2023-03-01T10:45:26;6.50;71.00
21387;DHT22;10854;45.922;6.716;2023-03-01T10:48:10;6.60;70.40
21387;DHT22;10854;45.922;6.716;2023-03-01T10:50:47;6.60;69.70
21387;DHT22;10854;45.922;6.716;2023-03-01T10:56:25;6.80;69.10
21387;DHT22;10854;45.922;6.716;2023-03-01T10:59:04;6.90;68.50
21387;DHT22;10854;45.922;6.716;2023-03-01T11:01:34;7.00;67.80
21387;DHT22;10854;45.922;6.716;2023-03-01T11:06:36;8.20;67.40
21387;DHT22;10854;45.922;6.716;2023-03-01T11:09:32;9.10;66.40
21387;DHT22;10854;45.922;6.716;2023-03-01T11:12:14;9.90;62.20
21387;DHT22;10854;45.922;6.716;2023-03-01T11:14:49;10.20;58.20
21387;DHT22;10854;45.922;6.716;2023-03-01T11:17:30;10.30;57.30
21387;DHT22;10854;45.922;6.716;2023-03-01T11:22:59;10.80;57.00
21387;DHT22;10854;45.922;6.716;2023-03-01T11:26:17;10.90;56.00
21387;DHT22;10854;45.922;6.716;2023-03-01T11:28:28;11.00;55.40
21387;DHT22;10854;45.922;6.716;2023-03-01T11:33:55;11.10;55.90
21387;DHT22;10854;45.922;6.716;2023-03-01T11:36:35;11.40;55.00
21387;DHT22;10854;45.922;6.716;2023-03-01T11:41:51;11.60;53.90
21387;DHT22;10854;45.922;6.716;2023-03-01T11:44:25;11.70;52.90
21387;DHT22;10854;45.922;6.716;2023-03-01T11:55:57;12.40;52.60
21387;DHT22;10854;45.922;6.716;2023-03-01T11:58:38;12.70;52.50
21387;DHT22;10854;45.922;6.716;2023-03-01T12:10:28;13.50;49.50
21387;DHT22;10854;45.922;6.716;2023-03-01T12:15:56;13.90;49.80
21387;DHT22;10854;45.922;6.716;2023-03-01T12:18:45;14.10;49.80
21387;DHT22;10854;45.922;6.716;2023-03-01T12:29:59;14.50;47.80
21387;DHT22;10854;45.922;6.716;2023-03-01T12:32:37;14.60;47.20
21387;DHT22;10854;45.922;6.716;2023-03-01T12:35:20;14.30;46.10
21387;DHT22;10854;45.922;6.716;2023-03-01T12:38:23;13.80;46.60
21387;DHT22;10854;45.922;6.716;2023-03-01T12:49:23;13.50;48.50
21387;DHT22;10854;45.922;6.716;2023-03-01T12:52:35;13.70;48.60
21387;DHT22;10854;45.922;6.716;2023-03-01T12:55:17;13.80;47.50
21387;DHT22;10854;45.922;6.716;2023-03-01T12:57:57;13.60;47.30
21387;DHT22;10854;45.922;6.716;2023-03-01T13:00:40;13.40;47.90
21387;DHT22;10854;45.922;6.716;2023-03-01T13:03:19;13.20;47.80
21387;DHT22;10854;45.922;6.716;2023-03-01T13:06:19;13.30;48.30
21387;DHT22;10854;45.922;6.716;2023-03-01T13:09:24;13.60;48.20
21387;DHT22;10854;45.922;6.716;2023-03-01T13:11:55;13.80;47.90
21387;DHT22;10854;45.922;6.716;2023-03-01T13:16:55;14.20;47.10
21387;DHT22;10854;45.922;6.716;2023-03-01T13:19:25;14.20;46.90
21387;DHT22;10854;45.922;6.716;2023-03-01T13:21:58;14.00;46.70
21387;DHT22;10854;45.922;6.716;2023-03-01T13:24:41;13.90;47.20
21387;DHT22;10854;45.922;6.716;2023-03-01T13:27:20;14.30;47.00
21387;DHT22;10854;45.922;6.716;2023-03-01T13:29:57;14.60;47.00
21387;DHT22;10854;45.922;6.716;2023-03-01T13:32:41;14.60;46.10
21387;DHT22;10854;45.922;6.716;2023-03-01T13:35:45;14.50;46.30
21387;DHT22;10854;45.922;6.716;2023-03-01T13:38:54;14.30;46.20
21387;DHT22;10854;45.922;6.716;2023-03-01T13:50:02;14.10;46.80
21387;DHT22;10854;45.922;6.716;2023-03-01T13:56:33;14.20;46.80
21387;DHT22;10854;45.922;6.716;2023-03-01T13:58:56;14.40;46.50
21387;DHT22;10854;45.922;6.716;2023-03-01T14:01:33;14.50;46.50
21387;DHT22;10854;45.922;6.716;2023-03-01T14:04:03;14.40;46.40
21387;DHT22;10854;45.922;6.716;2023-03-01T14:07:18;14.40;46.40
21387;DHT22;10854;45.922;6.716;2023-03-01T14:10:03;14.20;46.00
21387;DHT22;10854;45.922;6.716;2023-03-01T14:13:00;14.00;46.50
21387;DHT22;10854;45.922;6.716;2023-03-01T14:18:59;13.70;46.70
21387;DHT22;10854;45.922;6.716;2023-03-01T14:21:31;13.40;46.90
21387;DHT22;10854;45.922;6.716;2023-03-01T14:24:00;13.20;47.30
21387;DHT22;10854;45.922;6.716;2023-03-01T14:26:35;13.00;48.00
21387;DHT22;10854;45.922;6.716;2023-03-01T14:29:05;12.50;48.50
21387;DHT22;10854;45.922;6.716;2023-03-01T14:31:38;12.20;49.50
21387;DHT22;10854;45.922;6.716;2023-03-01T14:34:21;11.80;49.80
21387;DHT22;10854;45.922;6.716;2023-03-01T14:37:27;11.80;50.50
21387;DHT22;10854;45.922;6.716;2023-03-01T14:39:58;11.80;50.70
21387;DHT22;10854;45.922;6.716;2023-03-01T14:42:40;11.80;50.60
21387;DHT22;10854;45.922;6.716;2023-03-01T14:45:12;11.50;50.60
21387;DHT22;10854;45.922;6.716;2023-03-01T14:47:44;11.30;51.10
21387;DHT22;10854;45.922;6.716;2023-03-01T14:50:26;11.00;51.50
21387;DHT22;10854;45.922;6.716;2023-03-01T14:53:05;10.90;51.90
21387;DHT22;10854;45.922;6.716;2023-03-01T14:55:43;11.10;52.00
21387;DHT22;10854;45.922;6.716;2023-03-01T14:58:15;11.40;51.90
21387;DHT22;10854;45.922;6.716;2023-03-01T15:00:59;11.60;51.40
21387;DHT22;10854;45.922;6.716;2023-03-01T15:03:48;11.60;51.20
21387;DHT22;10854;45.922;6.716;2023-03-01T15:06:22;11.50;51.30
21387;DHT22;10854;45.922;6.716;2023-03-01T15:08:52;11.50;51.50
21387;DHT22;10854;45.922;6.716;2023-03-01T15:11:29;11.50;51.50
21387;DHT22;10854;45.922;6.716;2023-03-01T15:13:58;11.30;51.50
21387;DHT22;10854;45.922;6.716;2023-03-01T15:16:32;11.20;51.70
21387;DHT22;10854;45.922;6.716;2023-03-01T15:19:04;11.00;51.90
21387;DHT22;10854;45.922;6.716;2023-03-01T15:21:49;10.80;52.50
21387;DHT22;10854;45.922;6.716;2023-03-01T15:24:22;10.70;52.60
21387;DHT22;10854;45.922;6.716;2023-03-01T15:27:00;10.60;52.90
21387;DHT22;10854;45.922;6.716;2023-03-01T15:29:34;10.60;52.90
21387;DHT22;10854;45.922;6.716;2023-03-01T15:32:32;10.70;52.90
21387;DHT22;10854;45.922;6.716;2023-03-01T15:38:31;10.40;53.00
21387;DHT22;10854;45.922;6.716;2023-03-01T15:41:02;10.20;53.40
21387;DHT22;10854;45.922;6.716;2023-03-01T15:43:45;10.10;53.70
21387;DHT22;10854;45.922;6.716;2023-03-01T15:46:21;10.00;53.90
21387;DHT22;10854;45.922;6.716;2023-03-01T15:48:54;9.90;54.80
21387;DHT22;10854;45.922;6.716;2023-03-01T15:51:33;9.80;55.00
21387;DHT22;10854;45.922;6.716;2023-03-01T15:54:09;9.50;55.20
21387;DHT22;10854;45.922;6.716;2023-03-01T15:56:42;9.10;55.50
21387;DHT22;10854;45.922;6.716;2023-03-01T15:59:12;8.60;56.80
21387;DHT22;10854;45.922;6.716;2023-03-01T16:01:42;8.40;57.50
21387;DHT22;10854;45.922;6.716;2023-03-01T16:04:11;8.10;58.00
21387;DHT22;10854;45.922;6.716;2023-03-01T16:06:49;7.90;58.30
21387;DHT22;10854;45.922;6.716;2023-03-01T16:09:25;7.60;59.20
21387;DHT22;10854;45.922;6.716;2023-03-01T16:11:54;7.20;59.90
21387;DHT22;10854;45.922;6.716;2023-03-01T16:14:22;6.90;60.50
21387;DHT22;10854;45.922;6.716;2023-03-01T16:16:51;6.50;61.60
21387;DHT22;10854;45.922;6.716;2023-03-01T16:19:19;6.20;61.90
21387;DHT22;10854;45.922;6.716;2023-03-01T16:21:49;6.00;62.70
21387;DHT22;10854;45.922;6.716;2023-03-01T16:24:17;5.90;63.40
21387;DHT22;10854;45.922;6.716;2023-03-01T16:26:46;5.70;63.70
21387;DHT22;10854;45.922;6.716;2023-03-01T16:29:14;5.50;65.10
21387;DHT22;10854;45.922;6.716;2023-03-01T16:31:44;5.30;66.10
21387;DHT22;10854;45.922;6.716;2023-03-01T16:34:12;5.10;65.90
21387;DHT22;10854;45.922;6.716;2023-03-01T16:36:42;4.90;65.90
21387;DHT22;10854;45.922;6.716;2023-03-01T16:39:11;4.90;66.50
21387;DHT22;10854;45.922;6.716;2023-03-01T16:41:39;4.70;67.00
21387;DHT22;10854;45.922;6.716;2023-03-01T16:44:08;4.60;67.60
21387;DHT22;10854;45.922;6.716;2023-03-01T16:46:36;4.40;68.30
21387;DHT22;10854;45.922;6.716;2023-03-01T16:49:05;4.30;69.20
21387;DHT22;10854;45.922;6.716;2023-03-01T16:51:35;4.20;69.10
21387;DHT22;10854;45.922;6.716;2023-03-01T16:54:04;4.00;69.90
21387;DHT22;10854;45.922;6.716;2023-03-01T16:56:32;3.90;69.60
21387;DHT22;10854;45.922;6.716;2023-03-01T16:59:03;3.80;71.00
21387;DHT22;10854;45.922;6.716;2023-03-01T17:01:32;3.70;71.90
21387;DHT22;10854;45.922;6.716;2023-03-01T17:04:12;3.60;72.40
21387;DHT22;10854;45.922;6.716;2023-03-01T17:06:41;3.50;72.50
21387;DHT22;10854;45.922;6.716;2023-03-01T17:09:11;3.40;72.00
21387;DHT22;10854;45.922;6.716;2023-03-01T17:11:39;3.40;73.30
21387;DHT22;10854;45.922;6.716;2023-03-01T17:14:08;3.30;72.60
21387;DHT22;10854;45.922;6.716;2023-03-01T17:16:39;3.10;72.90
21387;DHT22;10854;45.922;6.716;2023-03-01T17:19:08;3.10;72.80
21387;DHT22;10854;45.922;6.716;2023-03-01T17:21:36;3.00;72.90
21387;DHT22;10854;45.922;6.716;2023-03-01T17:24:05;2.90;72.80
21387;DHT22;10854;45.922;6.716;2023-03-01T17:26:33;2.80;72.80
21387;DHT22;10854;45.922;6.716;2023-03-01T17:29:03;2.70;75.00
21387;DHT22;10854;45.922;6.716;2023-03-01T17:31:32;2.60;74.40
21387;DHT22;10854;45.922;6.716;2023-03-01T17:34:01;2.60;74.60
21387;DHT22;10854;45.922;6.716;2023-03-01T17:36:30;2.50;75.40
21387;DHT22;10854;45.922;6.716;2023-03-01T17:39:01;2.40;75.30
21387;DHT22;10854;45.922;6.716;2023-03-01T17:41:30;2.30;75.70
21387;DHT22;10854;45.922;6.716;2023-03-01T17:43:58;2.30;76.00
21387;DHT22;10854;45.922;6.716;2023-03-01T17:46:27;2.20;76.90
21387;DHT22;10854;45.922;6.716;2023-03-01T17:48:56;2.10;76.60
21387;DHT22;10854;45.922;6.716;2023-03-01T17:51:24;2.10;76.50
21387;DHT22;10854;45.922;6.716;2023-03-01T17:53:53;2.00;76.50
21387;DHT22;10854;45.922;6.716;2023-03-01T17:56:21;1.90;76.50